sensor_id;sensor_type;location;lat;lon;timestamp;P1;durP1;ratioP1;P2;durP2;ratioP2
13421;SDS011;6782;55.904;13.396;2024-03-23T00:55:09;21.80;;;5.77;;
13421;SDS011;6782;55.904;13.396;2024-03-23T00:57:57;23.40;;;5.50;;
13421;SDS011;6782;55.904;13.396;2024-03-23T01:00:43;25.00;;;5.43;;
13421;SDS011;6782;55.904;13.396;2024-03-23T01:03:30;25.27;;;6.70;;
13421;SDS011;6782;55.904;13.396;2024-03-23T01:06:18;20.00;;;5.27;;
13421;SDS011;6782;55.904;13.396;2024-03-23T01:09:04;24.07;;;6.03;;
13421;SDS011;6782;55.904;13.396;2024-03-23T01:11:56;21.83;;;5.77;;
13421;SDS011;6782;55.904;13.396;2024-03-23T01:14:42;21.83;;;5.90;;
13421;SDS011;6782;55.904;13.396;2024-03-23T01:17:30;24.90;;;5.43;;
13421;SDS011;6782;55.904;13.396;2024-03-23T01:20:16;22.43;;;5.57;;
13421;SDS011;6782;55.904;13.396;2024-03-23T01:23:03;21.63;;;5.27;;
13421;SDS011;6782;55.904;13.396;2024-03-23T01:25:52;24.93;;;5.63;;
13421;SDS011;6782;55.904;13.396;2024-03-23T01:28:42;21.77;;;5.47;;
13421;SDS011;6782;55.904;13.396;2024-03-23T01:31:28;27.30;;;5.67;;
13421;SDS011;6782;55.904;13.396;2024-03-23T01:34:15;20.20;;;5.13;;
13421;SDS011;6782;55.904;13.396;2024-03-23T01:37:01;20.23;;;5.77;;
13421;SDS011;6782;55.904;13.396;2024-03-23T01:39:49;21.73;;;5.27;;
13421;SDS011;6782;55.904;13.396;2024-03-23T01:42:35;23.70;;;5.43;;
13421;SDS011;6782;55.904;13.396;2024-03-23T01:45:23;20.27;;;5.80;;
13421;SDS011;6782;55.904;13.396;2024-03-23T01:48:10;22.03;;;6.13;;
13421;SDS011;6782;55.904;13.396;2024-03-23T01:50:58;27.03;;;5.77;;
13421;SDS011;6782;55.904;13.396;2024-03-23T01:53:44;19.57;;;5.50;;
13421;SDS011;6782;55.904;13.396;2024-03-23T01:56:32;25.47;;;5.83;;
13421;SDS011;6782;55.904;13.396;2024-03-23T01:59:21;21.60;;;5.70;;
13421;SDS011;6782;55.904;13.396;2024-03-23T02:02:10;27.47;;;6.30;;
13421;SDS011;6782;55.904;13.396;2024-03-23T02:04:56;23.67;;;6.10;;
13421;SDS011;6782;55.904;13.396;2024-03-23T02:07:43;14.23;;;4.67;;
13421;SDS011;6782;55.904;13.396;2024-03-23T02:10:29;23.30;;;5.83;;
13421;SDS011;6782;55.904;13.396;2024-03-23T02:13:17;30.87;;;5.97;;
13421;SDS011;6782;55.904;13.396;2024-03-23T02:16:04;25.03;;;5.37;;
13421;SDS011;6782;55.904;13.396;2024-03-23T02:18:53;20.93;;;5.67;;
13421;SDS011;6782;55.904;13.396;2024-03-23T02:21:40;22.53;;;6.67;;
13421;SDS011;6782;55.904;13.396;2024-03-23T02:24:30;26.83;;;6.67;;
13421;SDS011;6782;55.904;13.396;2024-03-23T02:27:17;28.17;;;6.00;;
13421;SDS011;6782;55.904;13.396;2024-03-23T02:30:04;19.70;;;6.57;;
13421;SDS011;6782;55.904;13.396;2024-03-23T02:32:52;25.57;;;6.53;;
13421;SDS011;6782;55.904;13.396;2024-03-23T02:35:41;29.37;;;6.73;;
13421;SDS011;6782;55.904;13.396;2024-03-23T02:38:27;20.60;;;6.30;;
13421;SDS011;6782;55.904;13.396;2024-03-23T02:41:17;23.53;;;5.93;;
13421;SDS011;6782;55.904;13.396;2024-03-23T02:44:08;27.27;;;6.33;;
13421;SDS011;6782;55.904;13.396;2024-03-23T02:46:57;27.87;;;6.23;;
13421;SDS011;6782;55.904;13.396;2024-03-23T02:49:44;25.63;;;6.43;;
13421;SDS011;6782;55.904;13.396;2024-03-23T02:52:31;23.93;;;6.20;;
13421;SDS011;6782;55.904;13.396;2024-03-23T02:55:17;19.97;;;5.37;;
13421;SDS011;6782;55.904;13.396;2024-03-23T02:58:06;27.43;;;6.63;;
13421;SDS011;6782;55.904;13.396;2024-03-23T03:00:52;22.77;;;5.80;;
13421;SDS011;6782;55.904;13.396;2024-03-23T03:03:40;25.73;;;6.07;;
13421;SDS011;6782;55.904;13.396;2024-03-23T03:06:26;23.67;;;6.77;;
13421;SDS011;6782;55.904;13.396;2024-03-23T03:09:14;27.27;;;6.60;;
13421;SDS011;6782;55.904;13.396;2024-03-23T03:12:01;25.60;;;6.70;;
13421;SDS011;6782;55.904;13.396;2024-03-23T03:14:50;27.83;;;7.17;;
13421;SDS011;6782;55.904;13.396;2024-03-23T03:17:36;23.30;;;6.03;;
13421;SDS011;6782;55.904;13.396;2024-03-23T03:20:23;28.93;;;7.57;;
13421;SDS011;6782;55.904;13.396;2024-03-23T03:23:10;34.37;;;7.50;;
13421;SDS011;6782;55.904;13.396;2024-03-23T03:25:57;21.30;;;7.10;;
13421;SDS011;6782;55.904;13.396;2024-03-23T03:28:44;27.10;;;6.87;;
13421;SDS011;6782;55.904;13.396;2024-03-23T03:31:35;25.97;;;6.87;;
13421;SDS011;6782;55.904;13.396;2024-03-23T03:34:23;25.73;;;6.60;;
13421;SDS011;6782;55.904;13.396;2024-03-23T03:37:09;24.70;;;6.30;;
13421;SDS011;6782;55.904;13.396;2024-03-23T03:39:57;26.00;;;6.93;;
13421;SDS011;6782;55.904;13.396;2024-03-23T03:42:43;28.00;;;6.87;;
13421;SDS011;6782;55.904;13.396;2024-03-23T03:45:31;25.93;;;7.40;;
13421;SDS011;6782;55.904;13.396;2024-03-23T03:48:18;23.83;;;6.57;;
13421;SDS011;6782;55.904;13.396;2024-03-23T03:51:06;30.50;;;7.60;;
13421;SDS011;6782;55.904;13.396;2024-03-23T03:53:52;29.30;;;7.97;;
13421;SDS011;6782;55.904;13.396;2024-03-23T03:56:39;31.90;;;7.57;;
13421;SDS011;6782;55.904;13.396;2024-03-23T03:59:26;29.27;;;7.97;;
13421;SDS011;6782;55.904;13.396;2024-03-23T04:02:13;32.80;;;8.13;;
13421;SDS011;6782;55.904;13.396;2024-03-23T04:05:01;32.33;;;8.50;;
13421;SDS011;6782;55.904;13.396;2024-03-23T04:07:48;27.17;;;7.57;;
13421;SDS011;6782;55.904;13.396;2024-03-23T04:10:35;31.77;;;7.60;;
13421;SDS011;6782;55.904;13.396;2024-03-23T04:13:22;30.67;;;8.27;;
13421;SDS011;6782;55.904;13.396;2024-03-23T04:16:08;28.63;;;8.60;;
13421;SDS011;6782;55.904;13.396;2024-03-23T04:18:55;25.97;;;7.43;;
13421;SDS011;6782;55.904;13.396;2024-03-23T04:21:43;29.33;;;7.73;;
13421;SDS011;6782;55.904;13.396;2024-03-23T04:24:31;27.40;;;8.07;;
13421;SDS011;6782;55.904;13.396;2024-03-23T04:27:17;30.90;;;7.87;;
13421;SDS011;6782;55.904;13.396;2024-03-23T04:30:05;37.07;;;8.13;;
13421;SDS011;6782;55.904;13.396;2024-03-23T04:32:56;29.30;;;7.80;;
13421;SDS011;6782;55.904;13.396;2024-03-23T04:35:44;27.20;;;7.87;;
13421;SDS011;6782;55.904;13.396;2024-03-23T04:38:38;30.57;;;8.17;;
13421;SDS011;6782;55.904;13.396;2024-03-23T04:41:26;32.43;;;8.73;;
13421;SDS011;6782;55.904;13.396;2024-03-23T04:44:13;35.70;;;7.47;;
13421;SDS011;6782;55.904;13.396;2024-03-23T04:47:00;28.13;;;8.10;;
13421;SDS011;6782;55.904;13.396;2024-03-23T04:49:48;27.60;;;7.93;;
13421;SDS011;6782;55.904;13.396;2024-03-23T04:52:35;31.37;;;8.07;;
13421;SDS011;6782;55.904;13.396;2024-03-23T04:55:24;29.43;;;7.80;;
13421;SDS011;6782;55.904;13.396;2024-03-23T04:58:11;22.00;;;7.10;;
13421;SDS011;6782;55.904;13.396;2024-03-23T05:00:58;28.77;;;7.33;;
13421;SDS011;6782;55.904;13.396;2024-03-23T05:03:45;30.60;;;7.90;;
13421;SDS011;6782;55.904;13.396;2024-03-23T05:06:32;28.03;;;6.50;;
13421;SDS011;6782;55.904;13.396;2024-03-23T05:09:18;34.80;;;7.70;;
13421;SDS011;6782;55.904;13.396;2024-03-23T05:12:08;25.97;;;7.10;;
13421;SDS011;6782;55.904;13.396;2024-03-23T05:14:56;29.20;;;7.03;;
13421;SDS011;6782;55.904;13.396;2024-03-23T05:17:42;30.97;;;7.60;;
13421;SDS011;6782;55.904;13.396;2024-03-23T05:20:29;34.27;;;8.17;;
13421;SDS011;6782;55.904;13.396;2024-03-23T05:23:15;29.23;;;7.10;;
13421;SDS011;6782;55.904;13.396;2024-03-23T05:26:03;33.77;;;7.73;;
13421;SDS011;6782;55.904;13.396;2024-03-23T05:28:51;35.50;;;7.87;;
13421;SDS011;6782;55.904;13.396;2024-03-23T05:31:38;30.17;;;7.13;;
13421;SDS011;6782;55.904;13.396;2024-03-23T05:34:27;30.67;;;7.67;;
13421;SDS011;6782;55.904;13.396;2024-03-23T05:37:14;34.37;;;8.40;;
13421;SDS011;6782;55.904;13.396;2024-03-23T05:40:01;34.83;;;7.47;;
13421;SDS011;6782;55.904;13.396;2024-03-23T05:42:49;30.23;;;7.40;;
13421;SDS011;6782;55.904;13.396;2024-03-23T05:45:39;28.67;;;8.93;;
13421;SDS011;6782;55.904;13.396;2024-03-23T05:48:26;26.40;;;9.30;;
13421;SDS011;6782;55.904;13.396;2024-03-23T05:51:14;35.40;;;9.30;;
13421;SDS011;6782;55.904;13.396;2024-03-23T05:54:01;32.77;;;8.77;;
13421;SDS011;6782;55.904;13.396;2024-03-23T05:56:48;29.90;;;8.53;;
13421;SDS011;6782;55.904;13.396;2024-03-23T05:59:35;35.80;;;8.30;;
13421;SDS011;6782;55.904;13.396;2024-03-23T06:02:24;38.37;;;8.90;;
13421;SDS011;6782;55.904;13.396;2024-03-23T06:05:10;36.13;;;8.70;;
13421;SDS011;6782;55.904;13.396;2024-03-23T06:07:57;32.63;;;8.13;;
13421;SDS011;6782;55.904;13.396;2024-03-23T06:10:43;29.57;;;7.10;;
13421;SDS011;6782;55.904;13.396;2024-03-23T06:13:31;30.23;;;8.50;;
13421;SDS011;6782;55.904;13.396;2024-03-23T06:16:17;28.33;;;7.43;;
13421;SDS011;6782;55.904;13.396;2024-03-23T06:19:10;39.50;;;8.20;;
13421;SDS011;6782;55.904;13.396;2024-03-23T06:21:57;36.23;;;7.47;;
13421;SDS011;6782;55.904;13.396;2024-03-23T06:24:44;31.00;;;7.23;;
13421;SDS011;6782;55.904;13.396;2024-03-23T06:27:31;33.60;;;8.07;;
13421;SDS011;6782;55.904;13.396;2024-03-23T06:30:18;26.50;;;7.23;;
13421;SDS011;6782;55.904;13.396;2024-03-23T06:33:05;32.43;;;7.13;;
13421;SDS011;6782;55.904;13.396;2024-03-23T06:35:54;35.83;;;8.67;;
13421;SDS011;6782;55.904;13.396;2024-03-23T06:38:40;27.97;;;8.47;;
13421;SDS011;6782;55.904;13.396;2024-03-23T06:41:27;28.13;;;8.53;;
13421;SDS011;6782;55.904;13.396;2024-03-23T06:44:13;35.83;;;9.00;;
13421;SDS011;6782;55.904;13.396;2024-03-23T06:47:01;35.40;;;9.07;;
13421;SDS011;6782;55.904;13.396;2024-03-23T06:49:48;27.43;;;8.07;;
13421;SDS011;6782;55.904;13.396;2024-03-23T06:52:37;30.80;;;8.83;;
13421;SDS011;6782;55.904;13.396;2024-03-23T06:55:23;31.80;;;9.50;;
13421;SDS011;6782;55.904;13.396;2024-03-23T06:58:12;33.90;;;9.37;;
13421;SDS011;6782;55.904;13.396;2024-03-23T07:00:58;35.50;;;9.57;;
13421;SDS011;6782;55.904;13.396;2024-03-23T07:03:45;29.27;;;9.53;;
13421;SDS011;6782;55.904;13.396;2024-03-23T07:06:31;28.43;;;9.87;;
13421;SDS011;6782;55.904;13.396;2024-03-23T07:09:20;29.00;;;8.73;;
13421;SDS011;6782;55.904;13.396;2024-03-23T07:12:11;27.43;;;9.23;;
13421;SDS011;6782;55.904;13.396;2024-03-23T07:14:58;23.80;;;8.80;;
13421;SDS011;6782;55.904;13.396;2024-03-23T07:17:46;30.13;;;8.87;;
13421;SDS011;6782;55.904;13.396;2024-03-23T07:20:33;32.73;;;9.27;;
13421;SDS011;6782;55.904;13.396;2024-03-23T07:23:21;36.10;;;9.13;;
13421;SDS011;6782;55.904;13.396;2024-03-23T07:26:10;29.50;;;9.00;;
13421;SDS011;6782;55.904;13.396;2024-03-23T07:28:58;30.43;;;8.77;;
13421;SDS011;6782;55.904;13.396;2024-03-23T07:31:47;26.30;;;9.37;;
13421;SDS011;6782;55.904;13.396;2024-03-23T07:34:33;27.23;;;8.60;;
13421;SDS011;6782;55.904;13.396;2024-03-23T07:37:20;29.60;;;9.10;;
13421;SDS011;6782;55.904;13.396;2024-03-23T07:40:07;32.13;;;9.00;;
13421;SDS011;6782;55.904;13.396;2024-03-23T07:42:56;27.43;;;9.53;;
13421;SDS011;6782;55.904;13.396;2024-03-23T07:45:43;30.60;;;9.40;;
13421;SDS011;6782;55.904;13.396;2024-03-23T07:48:37;26.33;;;8.47;;
13421;SDS011;6782;55.904;13.396;2024-03-23T07:51:24;24.07;;;8.00;;
13421;SDS011;6782;55.904;13.396;2024-03-23T07:54:12;28.17;;;8.50;;
13421;SDS011;6782;55.904;13.396;2024-03-23T07:56:58;30.17;;;8.67;;
13421;SDS011;6782;55.904;13.396;2024-03-23T07:59:50;28.07;;;8.33;;
13421;SDS011;6782;55.904;13.396;2024-03-23T08:02:37;25.73;;;8.17;;
13421;SDS011;6782;55.904;13.396;2024-03-23T08:05:25;26.23;;;8.10;;
13421;SDS011;6782;55.904;13.396;2024-03-23T08:08:13;22.97;;;7.40;;
13421;SDS011;6782;55.904;13.396;2024-03-23T08:10:59;25.33;;;7.07;;
13421;SDS011;6782;55.904;13.396;2024-03-23T08:13:46;22.17;;;7.67;;
13421;SDS011;6782;55.904;13.396;2024-03-23T08:16:34;28.33;;;7.60;;
13421;SDS011;6782;55.904;13.396;2024-03-23T08:19:22;21.73;;;7.40;;
13421;SDS011;6782;55.904;13.396;2024-03-23T08:22:09;22.93;;;7.13;;
13421;SDS011;6782;55.904;13.396;2024-03-23T08:24:57;25.50;;;6.63;;
13421;SDS011;6782;55.904;13.396;2024-03-23T08:27:44;20.37;;;6.43;;
13421;SDS011;6782;55.904;13.396;2024-03-23T08:30:31;20.20;;;5.77;;
13421;SDS011;6782;55.904;13.396;2024-03-23T08:33:20;27.33;;;7.30;;
13421;SDS011;6782;55.904;13.396;2024-03-23T08:36:06;26.40;;;6.37;;
13421;SDS011;6782;55.904;13.396;2024-03-23T08:38:55;22.67;;;5.77;;
13421;SDS011;6782;55.904;13.396;2024-03-23T08:41:41;17.13;;;5.77;;
13421;SDS011;6782;55.904;13.396;2024-03-23T08:44:31;23.17;;;6.60;;
13421;SDS011;6782;55.904;13.396;2024-03-23T08:47:17;18.87;;;6.20;;
13421;SDS011;6782;55.904;13.396;2024-03-23T08:50:07;20.10;;;5.70;;
13421;SDS011;6782;55.904;13.396;2024-03-23T08:52:54;21.47;;;6.00;;
13421;SDS011;6782;55.904;13.396;2024-03-23T08:55:41;21.47;;;5.87;;
13421;SDS011;6782;55.904;13.396;2024-03-23T08:58:28;19.93;;;5.87;;
13421;SDS011;6782;55.904;13.396;2024-03-23T09:01:16;20.77;;;5.43;;
13421;SDS011;6782;55.904;13.396;2024-03-23T09:04:02;23.40;;;5.17;;
13421;SDS011;6782;55.904;13.396;2024-03-23T09:06:51;22.23;;;5.57;;
13421;SDS011;6782;55.904;13.396;2024-03-23T09:09:38;20.30;;;5.50;;
13421;SDS011;6782;55.904;13.396;2024-03-23T09:12:25;22.87;;;5.70;;
13421;SDS011;6782;55.904;13.396;2024-03-23T09:15:12;22.97;;;5.93;;
13421;SDS011;6782;55.904;13.396;2024-03-23T09:17:59;20.83;;;5.67;;
13421;SDS011;6782;55.904;13.396;2024-03-23T09:20:46;24.80;;;6.67;;
13421;SDS011;6782;55.904;13.396;2024-03-23T09:23:34;23.57;;;5.40;;
13421;SDS011;6782;55.904;13.396;2024-03-23T09:26:20;18.03;;;5.63;;
13421;SDS011;6782;55.904;13.396;2024-03-23T09:29:07;20.47;;;5.10;;
13421;SDS011;6782;55.904;13.396;2024-03-23T09:31:54;24.43;;;5.53;;
13421;SDS011;6782;55.904;13.396;2024-03-23T09:34:42;22.90;;;5.50;;
13421;SDS011;6782;55.904;13.396;2024-03-23T09:37:28;21.97;;;5.27;;
13421;SDS011;6782;55.904;13.396;2024-03-23T09:40:17;17.03;;;5.20;;
13421;SDS011;6782;55.904;13.396;2024-03-23T09:43:03;16.50;;;5.03;;
13421;SDS011;6782;55.904;13.396;2024-03-23T09:45:53;14.43;;;4.67;;
13421;SDS011;6782;55.904;13.396;2024-03-23T09:48:40;16.90;;;4.80;;
13421;SDS011;6782;55.904;13.396;2024-03-23T09:51:28;20.73;;;4.80;;
13421;SDS011;6782;55.904;13.396;2024-03-23T09:54:14;15.87;;;4.50;;
13421;SDS011;6782;55.904;13.396;2024-03-23T09:57:06;13.90;;;3.90;;
13421;SDS011;6782;55.904;13.396;2024-03-23T09:59:52;16.73;;;3.80;;
13421;SDS011;6782;55.904;13.396;2024-03-23T10:02:43;20.33;;;4.70;;
13421;SDS011;6782;55.904;13.396;2024-03-23T10:05:29;13.90;;;3.47;;
13421;SDS011;6782;55.904;13.396;2024-03-23T10:08:19;12.03;;;3.47;;
13421;SDS011;6782;55.904;13.396;2024-03-23T10:11:12;15.73;;;4.27;;
13421;SDS011;6782;55.904;13.396;2024-03-23T10:14:04;16.53;;;4.23;;
13421;SDS011;6782;55.904;13.396;2024-03-23T10:16:50;14.07;;;4.40;;
13421;SDS011;6782;55.904;13.396;2024-03-23T10:19:38;15.50;;;4.17;;
13421;SDS011;6782;55.904;13.396;2024-03-23T10:22:24;14.73;;;3.80;;
13421;SDS011;6782;55.904;13.396;2024-03-23T10:25:11;13.90;;;4.37;;
13421;SDS011;6782;55.904;13.396;2024-03-23T10:27:59;14.97;;;4.23;;
13421;SDS011;6782;55.904;13.396;2024-03-23T10:30:48;13.20;;;4.20;;
13421;SDS011;6782;55.904;13.396;2024-03-23T10:33:34;17.03;;;4.53;;
13421;SDS011;6782;55.904;13.396;2024-03-23T10:36:22;15.60;;;4.80;;
13421;SDS011;6782;55.904;13.396;2024-03-23T10:39:09;14.77;;;5.10;;
13421;SDS011;6782;55.904;13.396;2024-03-23T10:41:58;16.30;;;4.60;;
13421;SDS011;6782;55.904;13.396;2024-03-23T10:44:47;18.80;;;4.57;;
13421;SDS011;6782;55.904;13.396;2024-03-23T10:47:38;13.13;;;4.30;;
13421;SDS011;6782;55.904;13.396;2024-03-23T10:50:24;13.40;;;4.13;;
13421;SDS011;6782;55.904;13.396;2024-03-23T10:53:12;17.23;;;4.23;;
13421;SDS011;6782;55.904;13.396;2024-03-23T10:55:59;13.70;;;4.63;;
13421;SDS011;6782;55.904;13.396;2024-03-23T10:58:48;12.20;;;3.80;;
13421;SDS011;6782;55.904;13.396;2024-03-23T11:01:35;12.93;;;4.73;;
13421;SDS011;6782;55.904;13.396;2024-03-23T11:04:42;15.13;;;5.20;;
13421;SDS011;6782;55.904;13.396;2024-03-23T11:07:29;15.53;;;4.67;;
13421;SDS011;6782;55.904;13.396;2024-03-23T11:10:24;14.13;;;4.27;;
13421;SDS011;6782;55.904;13.396;2024-03-23T11:13:21;14.53;;;4.57;;
13421;SDS011;6782;55.904;13.396;2024-03-23T11:16:12;17.17;;;4.23;;
13421;SDS011;6782;55.904;13.396;2024-03-23T11:22:41;12.03;;;3.70;;
13421;SDS011;6782;55.904;13.396;2024-03-23T11:25:28;17.97;;;4.23;;
13421;SDS011;6782;55.904;13.396;2024-03-23T11:28:16;12.57;;;4.07;;
13421;SDS011;6782;55.904;13.396;2024-03-23T11:31:09;14.37;;;3.93;;
13421;SDS011;6782;55.904;13.396;2024-03-23T11:34:02;13.47;;;3.70;;
13421;SDS011;6782;55.904;13.396;2024-03-23T11:36:49;14.33;;;3.97;;
13421;SDS011;6782;55.904;13.396;2024-03-23T11:39:38;14.27;;;4.07;;
13421;SDS011;6782;55.904;13.396;2024-03-23T11:42:24;16.73;;;4.23;;
13421;SDS011;6782;55.904;13.396;2024-03-23T11:45:12;14.87;;;4.07;;
13421;SDS011;6782;55.904;13.396;2024-03-23T11:48:04;17.40;;;3.77;;
13421;SDS011;6782;55.904;13.396;2024-03-23T11:50:53;13.80;;;4.07;;
13421;SDS011;6782;55.904;13.396;2024-03-23T11:53:42;11.33;;;3.80;;
13421;SDS011;6782;55.904;13.396;2024-03-23T11:56:33;10.17;;;3.50;;
13421;SDS011;6782;55.904;13.396;2024-03-23T11:59:29;11.77;;;3.47;;
13421;SDS011;6782;55.904;13.396;2024-03-23T12:02:17;9.83;;;3.30;;
13421;SDS011;6782;55.904;13.396;2024-03-23T12:05:13;12.93;;;3.83;;
13421;SDS011;6782;55.904;13.396;2024-03-23T12:08:17;15.13;;;4.07;;
13421;SDS011;6782;55.904;13.396;2024-03-23T12:11:06;10.13;;;3.10;;
13421;SDS011;6782;55.904;13.396;2024-03-23T12:13:56;11.80;;;3.43;;
13421;SDS011;6782;55.904;13.396;2024-03-23T12:16:48;12.17;;;3.10;;
13421;SDS011;6782;55.904;13.396;2024-03-23T12:19:34;8.87;;;3.13;;
13421;SDS011;6782;55.904;13.396;2024-03-23T12:22:21;9.53;;;3.07;;
13421;SDS011;6782;55.904;13.396;2024-03-23T12:25:08;12.87;;;3.10;;
13421;SDS011;6782;55.904;13.396;2024-03-23T12:27:57;10.47;;;3.03;;
13421;SDS011;6782;55.904;13.396;2024-03-23T12:30:45;11.63;;;2.80;;
13421;SDS011;6782;55.904;13.396;2024-03-23T12:33:33;9.87;;;3.20;;
13421;SDS011;6782;55.904;13.396;2024-03-23T12:36:19;11.20;;;3.10;;
13421;SDS011;6782;55.904;13.396;2024-03-23T12:39:06;12.47;;;3.27;;
13421;SDS011;6782;55.904;13.396;2024-03-23T12:41:52;12.67;;;3.10;;
13421;SDS011;6782;55.904;13.396;2024-03-23T12:44:41;11.20;;;3.30;;
13421;SDS011;6782;55.904;13.396;2024-03-23T12:47:29;9.70;;;3.03;;
13421;SDS011;6782;55.904;13.396;2024-03-23T12:50:17;10.83;;;3.50;;
13421;SDS011;6782;55.904;13.396;2024-03-23T12:53:04;7.17;;;2.60;;
13421;SDS011;6782;55.904;13.396;2024-03-23T12:55:50;11.97;;;3.17;;
13421;SDS011;6782;55.904;13.396;2024-03-23T12:58:38;11.57;;;3.57;;
13421;SDS011;6782;55.904;13.396;2024-03-23T13:01:25;9.13;;;3.23;;
13421;SDS011;6782;55.904;13.396;2024-03-23T13:04:15;10.30;;;3.33;;
13421;SDS011;6782;55.904;13.396;2024-03-23T13:07:02;9.67;;;2.93;;
13421;SDS011;6782;55.904;13.396;2024-03-23T13:09:50;11.47;;;3.10;;
13421;SDS011;6782;55.904;13.396;2024-03-23T13:12:38;9.73;;;2.77;;
13421;SDS011;6782;55.904;13.396;2024-03-23T13:15:25;12.67;;;3.27;;
13421;SDS011;6782;55.904;13.396;2024-03-23T13:18:14;8.77;;;2.87;;
13421;SDS011;6782;55.904;13.396;2024-03-23T13:21:03;8.57;;;3.07;;
13421;SDS011;6782;55.904;13.396;2024-03-23T13:23:50;8.37;;;2.93;;
13421;SDS011;6782;55.904;13.396;2024-03-23T13:26:37;10.30;;;3.43;;
13421;SDS011;6782;55.904;13.396;2024-03-23T13:29:24;14.47;;;3.10;;
13421;SDS011;6782;55.904;13.396;2024-03-23T13:32:11;10.30;;;3.03;;
13421;SDS011;6782;55.904;13.396;2024-03-23T13:34:57;10.67;;;2.97;;
13421;SDS011;6782;55.904;13.396;2024-03-23T13:37:46;10.20;;;3.23;;
13421;SDS011;6782;55.904;13.396;2024-03-23T13:40:33;7.33;;;2.83;;
13421;SDS011;6782;55.904;13.396;2024-03-23T13:43:23;6.40;;;2.40;;
13421;SDS011;6782;55.904;13.396;2024-03-23T13:46:12;4.27;;;1.73;;
13421;SDS011;6782;55.904;13.396;2024-03-23T13:48:59;5.00;;;1.60;;
13421;SDS011;6782;55.904;13.396;2024-03-23T13:51:46;5.73;;;1.87;;
13421;SDS011;6782;55.904;13.396;2024-03-23T13:54:35;2.90;;;1.40;;
13421;SDS011;6782;55.904;13.396;2024-03-23T13:57:22;2.10;;;1.23;;
13421;SDS011;6782;55.904;13.396;2024-03-23T14:00:12;3.67;;;1.30;;
13421;SDS011;6782;55.904;13.396;2024-03-23T14:02:58;4.33;;;1.60;;
13421;SDS011;6782;55.904;13.396;2024-03-23T14:05:46;4.27;;;1.60;;
13421;SDS011;6782;55.904;13.396;2024-03-23T14:08:32;3.93;;;1.43;;
13421;SDS011;6782;55.904;13.396;2024-03-23T14:11:23;1.70;;;1.20;;
13421;SDS011;6782;55.904;13.396;2024-03-23T14:14:09;4.03;;;1.70;;
13421;SDS011;6782;55.904;13.396;2024-03-23T14:16:56;3.87;;;1.20;;
13421;SDS011;6782;55.904;13.396;2024-03-23T14:19:43;3.07;;;1.00;;
13421;SDS011;6782;55.904;13.396;2024-03-23T14:22:30;2.27;;;0.83;;
13421;SDS011;6782;55.904;13.396;2024-03-23T14:25:18;3.87;;;1.23;;
13421;SDS011;6782;55.904;13.396;2024-03-23T14:28:07;3.67;;;1.20;;
13421;SDS011;6782;55.904;13.396;2024-03-23T14:30:59;3.40;;;1.10;;
13421;SDS011;6782;55.904;13.396;2024-03-23T14:33:48;2.83;;;1.23;;
13421;SDS011;6782;55.904;13.396;2024-03-23T14:36:36;2.40;;;1.17;;
13421;SDS011;6782;55.904;13.396;2024-03-23T14:39:22;2.93;;;1.20;;
13421;SDS011;6782;55.904;13.396;2024-03-23T14:42:09;5.20;;;1.47;;
13421;SDS011;6782;55.904;13.396;2024-03-23T14:44:58;3.93;;;1.30;;
13421;SDS011;6782;55.904;13.396;2024-03-23T14:47:44;5.03;;;1.30;;
13421;SDS011;6782;55.904;13.396;2024-03-23T14:50:31;4.47;;;1.37;;
13421;SDS011;6782;55.904;13.396;2024-03-23T14:53:17;2.13;;;1.20;;
13421;SDS011;6782;55.904;13.396;2024-03-23T14:56:05;4.97;;;1.70;;
13421;SDS011;6782;55.904;13.396;2024-03-23T14:58:52;2.83;;;1.57;;
13421;SDS011;6782;55.904;13.396;2024-03-23T15:01:42;3.80;;;2.00;;
13421;SDS011;6782;55.904;13.396;2024-03-23T15:04:28;3.27;;;1.80;;
13421;SDS011;6782;55.904;13.396;2024-03-23T15:07:15;6.13;;;1.60;;
13421;SDS011;6782;55.904;13.396;2024-03-23T15:10:01;5.17;;;1.90;;
13421;SDS011;6782;55.904;13.396;2024-03-23T15:12:50;5.63;;;2.23;;
13421;SDS011;6782;55.904;13.396;2024-03-23T15:15:38;5.37;;;1.70;;
13421;SDS011;6782;55.904;13.396;2024-03-23T15:18:27;6.40;;;1.97;;
13421;SDS011;6782;55.904;13.396;2024-03-23T15:21:14;8.47;;;1.90;;
13421;SDS011;6782;55.904;13.396;2024-03-23T15:24:06;5.37;;;2.00;;
13421;SDS011;6782;55.904;13.396;2024-03-23T15:26:56;4.07;;;1.83;;
13421;SDS011;6782;55.904;13.396;2024-03-23T15:29:42;8.57;;;2.47;;
13421;SDS011;6782;55.904;13.396;2024-03-23T15:32:31;5.40;;;2.03;;
13421;SDS011;6782;55.904;13.396;2024-03-23T15:35:19;6.87;;;2.17;;
13421;SDS011;6782;55.904;13.396;2024-03-23T15:38:09;2.83;;;1.90;;
13421;SDS011;6782;55.904;13.396;2024-03-23T15:40:55;7.87;;;2.43;;
13421;SDS011;6782;55.904;13.396;2024-03-23T15:43:42;6.67;;;2.13;;
13421;SDS011;6782;55.904;13.396;2024-03-23T15:46:29;6.23;;;2.00;;
13421;SDS011;6782;55.904;13.396;2024-03-23T15:49:17;5.90;;;1.73;;
13421;SDS011;6782;55.904;13.396;2024-03-23T15:52:09;5.47;;;1.70;;
13421;SDS011;6782;55.904;13.396;2024-03-23T15:54:56;3.13;;;1.60;;
13421;SDS011;6782;55.904;13.396;2024-03-23T15:57:43;6.37;;;1.90;;
13421;SDS011;6782;55.904;13.396;2024-03-23T16:00:33;5.67;;;1.73;;
13421;SDS011;6782;55.904;13.396;2024-03-23T16:03:19;7.20;;;1.83;;
13421;SDS011;6782;55.904;13.396;2024-03-23T16:06:06;4.50;;;2.17;;
13421;SDS011;6782;55.904;13.396;2024-03-23T16:08:55;4.80;;;1.93;;
13421;SDS011;6782;55.904;13.396;2024-03-23T16:11:42;3.37;;;1.77;;
13421;SDS011;6782;55.904;13.396;2024-03-23T16:14:29;3.43;;;1.40;;
13421;SDS011;6782;55.904;13.396;2024-03-23T16:17:16;4.87;;;1.50;;
13421;SDS011;6782;55.904;13.396;2024-03-23T16:20:03;3.93;;;1.47;;
13421;SDS011;6782;55.904;13.396;2024-03-23T16:22:55;4.43;;;1.70;;
13421;SDS011;6782;55.904;13.396;2024-03-23T16:25:47;4.70;;;1.73;;
13421;SDS011;6782;55.904;13.396;2024-03-23T16:28:42;6.17;;;2.20;;
13421;SDS011;6782;55.904;13.396;2024-03-23T16:31:31;4.13;;;1.90;;
13421;SDS011;6782;55.904;13.396;2024-03-23T16:34:17;4.57;;;1.57;;
13421;SDS011;6782;55.904;13.396;2024-03-23T16:37:04;4.63;;;2.00;;
13421;SDS011;6782;55.904;13.396;2024-03-23T16:39:51;6.40;;;1.90;;
13421;SDS011;6782;55.904;13.396;2024-03-23T16:42:39;4.03;;;1.73;;
13421;SDS011;6782;55.904;13.396;2024-03-23T16:45:27;3.27;;;2.17;;
13421;SDS011;6782;55.904;13.396;2024-03-23T16:48:13;4.20;;;1.90;;
13421;SDS011;6782;55.904;13.396;2024-03-23T16:51:00;4.63;;;1.87;;
13421;SDS011;6782;55.904;13.396;2024-03-23T16:53:49;5.47;;;1.90;;
13421;SDS011;6782;55.904;13.396;2024-03-23T16:56:35;6.43;;;2.10;;
13421;SDS011;6782;55.904;13.396;2024-03-23T16:59:24;4.97;;;1.70;;
13421;SDS011;6782;55.904;13.396;2024-03-23T17:02:10;4.60;;;1.97;;
13421;SDS011;6782;55.904;13.396;2024-03-23T17:04:58;6.40;;;2.40;;
13421;SDS011;6782;55.904;13.396;2024-03-23T17:07:44;4.63;;;2.00;;
13421;SDS011;6782;55.904;13.396;2024-03-23T17:10:31;5.47;;;2.13;;
13421;SDS011;6782;55.904;13.396;2024-03-23T17:13:18;6.03;;;2.20;;
13421;SDS011;6782;55.904;13.396;2024-03-23T17:16:07;6.00;;;2.23;;
13421;SDS011;6782;55.904;13.396;2024-03-23T17:18:54;4.30;;;1.70;;
13421;SDS011;6782;55.904;13.396;2024-03-23T17:21:44;3.80;;;1.87;;
13421;SDS011;6782;55.904;13.396;2024-03-23T17:24:32;4.67;;;1.97;;
13421;SDS011;6782;55.904;13.396;2024-03-23T17:27:19;5.50;;;1.70;;
13421;SDS011;6782;55.904;13.396;2024-03-23T17:30:06;4.43;;;1.87;;
13421;SDS011;6782;55.904;13.396;2024-03-23T17:32:55;2.93;;;1.50;;
13421;SDS011;6782;55.904;13.396;2024-03-23T17:35:42;3.73;;;1.50;;
13421;SDS011;6782;55.904;13.396;2024-03-23T17:38:29;4.30;;;1.80;;